ENMI/n/a METAR and TAF weather

Enter ICAO airport designator
Station Type Date Time Source
ENMI METAR 2009/11/12 00:55 UTC NOAA

ENMI 120050 RRA


Station Type Date Time Source
ENMI Decoded METAR 2009/11/12 00:55 UTC NOAA

Station name not available
Nov 11, 2009 - 07:55 PM EST / 2009.11.12 0055 UTC
ob: ENMI 120050 RRA
cycle: 1

Station Type Date Time Source
ENMI TAF 2015/08/03 00:20 UTC NOAA

 000 SANO32 ENMI 030020 METAR ENAL 030020Z AUTO 14006KT 9999NDV NCD 09/09 Q1020


Example: see airport list